sensor_id;sensor_type;location;lat;lon;timestamp;pressure;altitude;pressure_sealevel;temperature
53412;BMP280;39307;52.870;13.660;2023-02-08T00:01:43;103806.28;;;-4.36
53412;BMP280;39307;52.870;13.660;2023-02-08T00:04:09;103802.91;;;-4.41
53412;BMP280;39307;52.870;13.660;2023-02-08T00:06:35;103802.09;;;-4.45
53412;BMP280;39307;52.870;13.660;2023-02-08T00:09:01;103796.09;;;-4.44
53412;BMP280;39307;52.870;13.660;2023-02-08T00:11:28;103793.56;;;-4.42
53412;BMP280;39307;52.870;13.660;2023-02-08T00:13:54;103792.72;;;-4.46
53412;BMP280;39307;52.870;13.660;2023-02-08T00:16:20;103786.75;;;-4.45
53412;BMP280;39307;52.870;13.660;2023-02-08T00:18:46;103783.34;;;-4.45
53412;BMP280;39307;52.870;13.660;2023-02-08T00:21:15;103784.19;;;-4.45
53412;BMP280;39307;52.870;13.660;2023-02-08T00:23:42;103786.66;;;-4.37
53412;BMP280;39307;52.870;13.660;2023-02-08T00:26:08;103789.19;;;-4.33
53412;BMP280;39307;52.870;13.660;2023-02-08T00:28:35;103793.41;;;-4.32
53412;BMP280;39307;52.870;13.660;2023-02-08T00:31:01;103790.91;;;-4.35
53412;BMP280;39307;52.870;13.660;2023-02-08T00:33:27;103787.53;;;-4.38
53412;BMP280;39307;52.870;13.660;2023-02-08T00:36:01;103781.53;;;-4.36
53412;BMP280;39307;52.870;13.660;2023-02-08T00:38:28;103791.69;;;-4.30
53412;BMP280;39307;52.870;13.660;2023-02-08T00:40:54;103787.47;;;-4.34
53412;BMP280;39307;52.870;13.660;2023-02-08T00:43:21;103784.16;;;-4.43
53412;BMP280;39307;52.870;13.660;2023-02-08T00:45:52;103781.59;;;-4.43
53412;BMP280;39307;52.870;13.660;2023-02-08T00:48:18;103783.34;;;-4.45
53412;BMP280;39307;52.870;13.660;2023-02-08T00:50:51;103788.53;;;-4.53
53412;BMP280;39307;52.870;13.660;2023-02-08T00:53:22;103799.66;;;-4.58
53412;BMP280;39307;52.870;13.660;2023-02-08T00:55:52;103792.91;;;-4.60
53412;BMP280;39307;52.870;13.660;2023-02-08T00:58:19;103800.56;;;-4.62
53412;BMP280;39307;52.870;13.660;2023-02-08T01:00:45;103801.47;;;-4.66
53412;BMP280;39307;52.870;13.660;2023-02-08T01:03:11;103797.19;;;-4.65
53412;BMP280;39307;52.870;13.660;2023-02-08T01:05:38;103792.91;;;-4.60
53412;BMP280;39307;52.870;13.660;2023-02-08T01:08:04;103798.84;;;-4.60
53412;BMP280;39307;52.870;13.660;2023-02-08T01:10:33;103798.88;;;-4.64
53412;BMP280;39307;52.870;13.660;2023-02-08T01:12:59;103802.38;;;-4.70
53412;BMP280;39307;52.870;13.660;2023-02-08T01:15:26;103802.41;;;-4.74
53412;BMP280;39307;52.870;13.660;2023-02-08T01:17:56;103804.88;;;-4.68
53412;BMP280;39307;52.870;13.660;2023-02-08T01:20:23;103809.13;;;-4.67
53412;BMP280;39307;52.870;13.660;2023-02-08T01:22:49;103805.75;;;-4.69
53412;BMP280;39307;52.870;13.660;2023-02-08T01:25:16;103799.88;;;-4.76
53412;BMP280;39307;52.870;13.660;2023-02-08T01:27:42;103805.81;;;-4.75
53412;BMP280;39307;52.870;13.660;2023-02-08T01:30:09;103795.69;;;-4.84
53412;BMP280;39307;52.870;13.660;2023-02-08T01:32:35;103806.84;;;-4.94
53412;BMP280;39307;52.870;13.660;2023-02-08T01:35:01;103807.75;;;-4.99
53412;BMP280;39307;52.870;13.660;2023-02-08T01:37:27;103809.47;;;-5.00
53412;BMP280;39307;52.870;13.660;2023-02-08T01:39:54;103808.59;;;-4.99
53412;BMP280;39307;52.870;13.660;2023-02-08T01:42:20;103807.66;;;-4.92
53412;BMP280;39307;52.870;13.660;2023-02-08T01:47:44;103803.53;;;-5.05
53412;BMP280;39307;52.870;13.660;2023-02-08T01:50:11;103810.38;;;-5.10
53412;BMP280;39307;52.870;13.660;2023-02-08T01:52:38;103807.84;;;-5.11
53412;BMP280;39307;52.870;13.660;2023-02-08T01:55:09;103808.66;;;-5.08
53412;BMP280;39307;52.870;13.660;2023-02-08T01:57:36;103796.75;;;-5.10
53412;BMP280;39307;52.870;13.660;2023-02-08T02:00:15;103804.44;;;-5.12
53412;BMP280;39307;52.870;13.660;2023-02-08T02:02:43;103801.00;;;-5.11
53412;BMP280;39307;52.870;13.660;2023-02-08T02:05:10;103789.09;;;-5.12
53412;BMP280;39307;52.870;13.660;2023-02-08T02:07:37;103780.59;;;-5.14
53412;BMP280;39307;52.870;13.660;2023-02-08T02:10:15;103781.44;;;-5.13
53412;BMP280;39307;52.870;13.660;2023-02-08T02:12:43;103784.88;;;-5.17
53412;BMP280;39307;52.870;13.660;2023-02-08T02:15:10;103784.03;;;-5.19
53412;BMP280;39307;52.870;13.660;2023-02-08T02:17:37;103783.19;;;-5.18
53412;BMP280;39307;52.870;13.660;2023-02-08T02:20:37;103778.09;;;-5.19
53412;BMP280;39307;52.870;13.660;2023-02-08T02:23:14;103784.09;;;-5.23
53412;BMP280;39307;52.870;13.660;2023-02-08T02:31:56;103785.06;;;-5.39
53412;BMP280;39307;52.870;13.660;2023-02-08T02:45:44;103793.50;;;-5.31
53412;BMP280;39307;52.870;13.660;2023-02-08T02:48:22;103791.00;;;-5.39
53412;BMP280;39307;52.870;13.660;2023-02-08T02:53:52;103796.09;;;-5.36
53412;BMP280;39307;52.870;13.660;2023-02-08T02:56:42;103797.78;;;-5.35
53412;BMP280;39307;52.870;13.660;2023-02-08T02:59:11;103803.75;;;-5.34
53412;BMP280;39307;52.870;13.660;2023-02-08T03:01:39;103796.94;;;-5.32
53412;BMP280;39307;52.870;13.660;2023-02-08T03:04:44;103812.28;;;-5.35
53412;BMP280;39307;52.870;13.660;2023-02-08T03:12:46;103802.06;;;-5.38
53412;BMP280;39307;52.870;13.660;2023-02-08T03:15:31;103810.59;;;-5.36
53412;BMP280;39307;52.870;13.660;2023-02-08T03:26:35;103815.72;;;-5.39
53412;BMP280;39307;52.870;13.660;2023-02-08T03:29:17;103813.13;;;-5.33
53412;BMP280;39307;52.870;13.660;2023-02-08T03:31:59;103815.66;;;-5.30
53412;BMP280;39307;52.870;13.660;2023-02-08T03:34:43;103813.97;;;-5.34
53412;BMP280;39307;52.870;13.660;2023-02-08T03:37:22;103812.31;;;-5.40
53412;BMP280;39307;52.870;13.660;2023-02-08T03:39:54;103819.97;;;-5.41
53412;BMP280;39307;52.870;13.660;2023-02-08T03:42:25;103808.91;;;-5.42
53412;BMP280;39307;52.870;13.660;2023-02-08T03:45:49;103815.66;;;-5.35
53412;BMP280;39307;52.870;13.660;2023-02-08T03:47:57;103810.59;;;-5.36
53412;BMP280;39307;52.870;13.660;2023-02-08T03:50:26;103815.66;;;-5.35
53412;BMP280;39307;52.870;13.660;2023-02-08T03:52:54;103817.44;;;-5.43
53412;BMP280;39307;52.870;13.660;2023-02-08T03:55:28;103820.00;;;-5.43
53412;BMP280;39307;52.870;13.660;2023-02-08T04:00:41;103815.81;;;-5.54
53412;BMP280;39307;52.870;13.660;2023-02-08T04:03:20;103811.56;;;-5.56
53412;BMP280;39307;52.870;13.660;2023-02-08T04:05:49;103814.13;;;-5.58
53412;BMP280;39307;52.870;13.660;2023-02-08T04:08:16;103815.81;;;-5.57
53412;BMP280;39307;52.870;13.660;2023-02-08T04:10:42;103823.47;;;-5.54
53412;BMP280;39307;52.870;13.660;2023-02-08T04:13:08;103818.34;;;-5.52
53412;BMP280;39307;52.870;13.660;2023-02-08T04:15:34;103817.50;;;-5.53
53412;BMP280;39307;52.870;13.660;2023-02-08T04:18:00;103827.75;;;-5.59
53412;BMP280;39307;52.870;13.660;2023-02-08T04:20:27;103817.56;;;-5.60
53412;BMP280;39307;52.870;13.660;2023-02-08T04:22:53;103825.22;;;-5.63
53412;BMP280;39307;52.870;13.660;2023-02-08T04:25:19;103822.69;;;-5.66
53412;BMP280;39307;52.870;13.660;2023-02-08T04:27:45;103819.28;;;-5.67
53412;BMP280;39307;52.870;13.660;2023-02-08T04:30:12;103826.94;;;-5.67
53412;BMP280;39307;52.870;13.660;2023-02-08T04:32:37;103819.28;;;-5.64
53412;BMP280;39307;52.870;13.660;2023-02-08T04:35:03;103818.41;;;-5.64
53412;BMP280;39307;52.870;13.660;2023-02-08T04:37:30;103835.44;;;-5.68
53412;BMP280;39307;52.870;13.660;2023-02-08T04:39:56;103836.34;;;-5.72
53412;BMP280;39307;52.870;13.660;2023-02-08T04:42:22;103821.06;;;-5.74
53412;BMP280;39307;52.870;13.660;2023-02-08T04:44:48;103827.03;;;-5.78
53412;BMP280;39307;52.870;13.660;2023-02-08T04:47:14;103819.38;;;-5.78
53412;BMP280;39307;52.870;13.660;2023-02-08T04:49:41;103820.19;;;-5.76
53412;BMP280;39307;52.870;13.660;2023-02-08T04:52:07;103810.84;;;-5.74
53412;BMP280;39307;52.870;13.660;2023-02-08T04:54:33;103807.44;;;-5.75
53412;BMP280;39307;52.870;13.660;2023-02-08T04:57:00;103815.94;;;-5.73
53412;BMP280;39307;52.870;13.660;2023-02-08T04:59:26;103811.69;;;-5.73
53412;BMP280;39307;52.870;13.660;2023-02-08T05:01:52;103811.63;;;-5.68
53412;BMP280;39307;52.870;13.660;2023-02-08T05:04:18;103800.59;;;-5.70
53412;BMP280;39307;52.870;13.660;2023-02-08T05:06:45;103805.69;;;-5.70
53412;BMP280;39307;52.870;13.660;2023-02-08T05:09:11;103801.44;;;-5.70
53412;BMP280;39307;52.870;13.660;2023-02-08T05:11:37;103807.38;;;-5.69
53412;BMP280;39307;52.870;13.660;2023-02-08T05:14:04;103812.53;;;-5.74
53412;BMP280;39307;52.870;13.660;2023-02-08T05:16:30;103821.06;;;-5.74
53412;BMP280;39307;52.870;13.660;2023-02-08T05:18:57;103819.34;;;-5.77
53412;BMP280;39307;52.870;13.660;2023-02-08T05:21:23;103804.91;;;-5.78
53412;BMP280;39307;52.870;13.660;2023-02-08T05:23:50;103810.88;;;-5.79
53412;BMP280;39307;52.870;13.660;2023-02-08T05:26:16;103818.53;;;-5.77
53412;BMP280;39307;52.870;13.660;2023-02-08T05:28:43;103812.59;;;-5.81
53412;BMP280;39307;52.870;13.660;2023-02-08T05:31:20;103818.53;;;-5.77
53412;BMP280;39307;52.870;13.660;2023-02-08T05:33:51;103814.28;;;-5.81
53412;BMP280;39307;52.870;13.660;2023-02-08T05:36:18;103816.00;;;-5.83
53412;BMP280;39307;52.870;13.660;2023-02-08T05:38:44;103813.38;;;-5.72
53412;BMP280;39307;52.870;13.660;2023-02-08T05:41:10;103813.38;;;-5.73
53412;BMP280;39307;52.870;13.660;2023-02-08T05:43:36;103828.69;;;-5.73
53412;BMP280;39307;52.870;13.660;2023-02-08T05:46:03;103838.06;;;-5.74
53412;BMP280;39307;52.870;13.660;2023-02-08T05:48:30;103828.69;;;-5.73
53412;BMP280;39307;52.870;13.660;2023-02-08T05:50:56;103837.22;;;-5.73
53412;BMP280;39307;52.870;13.660;2023-02-08T05:53:23;103840.59;;;-5.74
53412;BMP280;39307;52.870;13.660;2023-02-08T05:55:49;103831.28;;;-5.76
53412;BMP280;39307;52.870;13.660;2023-02-08T05:58:15;103837.22;;;-5.77
53412;BMP280;39307;52.870;13.660;2023-02-08T06:00:42;103838.09;;;-5.78
53412;BMP280;39307;52.870;13.660;2023-02-08T06:03:08;103845.75;;;-5.79
53412;BMP280;39307;52.870;13.660;2023-02-08T06:05:37;103849.16;;;-5.80
53412;BMP280;39307;52.870;13.660;2023-02-08T06:08:03;103846.63;;;-5.82
53412;BMP280;39307;52.870;13.660;2023-02-08T06:10:30;103848.31;;;-5.81
53412;BMP280;39307;52.870;13.660;2023-02-08T06:12:56;103846.59;;;-5.80
53412;BMP280;39307;52.870;13.660;2023-02-08T06:15:22;103850.03;;;-5.81
53412;BMP280;39307;52.870;13.660;2023-02-08T06:17:49;103849.19;;;-5.82
53412;BMP280;39307;52.870;13.660;2023-02-08T06:20:15;103846.63;;;-5.83
53412;BMP280;39307;52.870;13.660;2023-02-08T06:22:42;103840.66;;;-5.88
53412;BMP280;39307;52.870;13.660;2023-02-08T06:25:08;103847.47;;;-5.89
53412;BMP280;39307;52.870;13.660;2023-02-08T06:27:34;103855.97;;;-5.85
53412;BMP280;39307;52.870;13.660;2023-02-08T06:30:00;103861.94;;;-5.86
53412;BMP280;39307;52.870;13.660;2023-02-08T06:32:26;103859.41;;;-5.89
53412;BMP280;39307;52.870;13.660;2023-02-08T06:34:53;103861.94;;;-5.83
53412;BMP280;39307;52.870;13.660;2023-02-08T06:37:19;103866.19;;;-5.84
53412;BMP280;39307;52.870;13.660;2023-02-08T06:39:45;103868.75;;;-5.87
53412;BMP280;39307;52.870;13.660;2023-02-08T06:42:11;103869.63;;;-5.88
53412;BMP280;39307;52.870;13.660;2023-02-08T06:44:38;103864.50;;;-5.82
53412;BMP280;39307;52.870;13.660;2023-02-08T06:47:04;103861.91;;;-5.77
53412;BMP280;39307;52.870;13.660;2023-02-08T06:49:30;103862.78;;;-5.86
53412;BMP280;39307;52.870;13.660;2023-02-08T06:51:56;103873.00;;;-5.86
53412;BMP280;39307;52.870;13.660;2023-02-08T06:54:22;103869.59;;;-5.83
53412;BMP280;39307;52.870;13.660;2023-02-08T06:56:48;103868.72;;;-5.85
53412;BMP280;39307;52.870;13.660;2023-02-08T06:59:15;103871.28;;;-5.88
53412;BMP280;39307;52.870;13.660;2023-02-08T07:01:41;103867.91;;;-5.92
53412;BMP280;39307;52.870;13.660;2023-02-08T07:04:07;103861.16;;;-5.94
53412;BMP280;39307;52.870;13.660;2023-02-08T07:06:33;103862.81;;;-5.98
53412;BMP280;39307;52.870;13.660;2023-02-08T07:08:59;103878.13;;;-5.95
53412;BMP280;39307;52.870;13.660;2023-02-08T07:11:25;103870.47;;;-5.93
53412;BMP280;39307;52.870;13.660;2023-02-08T07:13:52;103873.00;;;-5.87
53412;BMP280;39307;52.870;13.660;2023-02-08T07:16:18;103868.75;;;-5.88
53412;BMP280;39307;52.870;13.660;2023-02-08T07:18:45;103866.16;;;-5.79
53412;BMP280;39307;52.870;13.660;2023-02-08T07:21:11;103869.56;;;-5.74
53412;BMP280;39307;52.870;13.660;2023-02-08T07:23:38;103876.31;;;-5.71
53412;BMP280;39307;52.870;13.660;2023-02-08T07:26:06;103877.16;;;-5.69
53412;BMP280;39307;52.870;13.660;2023-02-08T07:28:32;103887.31;;;-5.64
53412;BMP280;39307;52.870;13.660;2023-02-08T07:30:58;103889.00;;;-5.59
53412;BMP280;39307;52.870;13.660;2023-02-08T07:33:24;103889.00;;;-5.54
53412;BMP280;39307;52.870;13.660;2023-02-08T07:35:50;103887.25;;;-5.49
53412;BMP280;39307;52.870;13.660;2023-02-08T07:38:17;103890.66;;;-5.49
53412;BMP280;39307;52.870;13.660;2023-02-08T07:40:43;103888.97;;;-5.53
53412;BMP280;39307;52.870;13.660;2023-02-08T07:43:09;103886.41;;;-5.43
53412;BMP280;39307;52.870;13.660;2023-02-08T07:45:39;103892.34;;;-5.39
53412;BMP280;39307;52.870;13.660;2023-02-08T07:48:05;103893.16;;;-5.36
53412;BMP280;39307;52.870;13.660;2023-02-08T07:50:31;103889.75;;;-5.38
53412;BMP280;39307;52.870;13.660;2023-02-08T07:52:58;103893.16;;;-5.37
53412;BMP280;39307;52.870;13.660;2023-02-08T07:55:24;103899.09;;;-5.34
53412;BMP280;39307;52.870;13.660;2023-02-08T07:57:50;103903.38;;;-5.37
53412;BMP280;39307;52.870;13.660;2023-02-08T08:00:17;103900.78;;;-5.34
53412;BMP280;39307;52.870;13.660;2023-02-08T08:02:44;103904.19;;;-5.32
53412;BMP280;39307;52.870;13.660;2023-02-08T08:05:10;103904.19;;;-5.29
53412;BMP280;39307;52.870;13.660;2023-02-08T08:07:36;103908.41;;;-5.25
53412;BMP280;39307;52.870;13.660;2023-02-08T08:10:03;103902.41;;;-5.18
53412;BMP280;39307;52.870;13.660;2023-02-08T08:12:29;103898.09;;;-5.08
53412;BMP280;39307;52.870;13.660;2023-02-08T08:14:55;103892.94;;;-5.02
53412;BMP280;39307;52.870;13.660;2023-02-08T08:17:22;103896.34;;;-5.01
53412;BMP280;39307;52.870;13.660;2023-02-08T08:19:48;103897.19;;;-5.04
53412;BMP280;39307;52.870;13.660;2023-02-08T08:22:15;103893.78;;;-5.00
53412;BMP280;39307;52.870;13.660;2023-02-08T08:24:41;103883.53;;;-4.98
53412;BMP280;39307;52.870;13.660;2023-02-08T08:27:07;103886.91;;;-4.92
53412;BMP280;39307;52.870;13.660;2023-02-08T08:29:35;103878.34;;;-4.87
53412;BMP280;39307;52.870;13.660;2023-02-08T08:32:02;103880.00;;;-4.83
53412;BMP280;39307;52.870;13.660;2023-02-08T08:34:30;103877.41;;;-4.75
53412;BMP280;39307;52.870;13.660;2023-02-08T08:36:57;103875.63;;;-4.70
53412;BMP280;39307;52.870;13.660;2023-02-08T08:39:23;103870.44;;;-4.61
53412;BMP280;39307;52.870;13.660;2023-02-08T08:41:57;103869.47;;;-4.49
53412;BMP280;39307;52.870;13.660;2023-02-08T08:44:24;103869.34;;;-4.37
53412;BMP280;39307;52.870;13.660;2023-02-08T08:46:49;103866.66;;;-4.21
53412;BMP280;39307;52.870;13.660;2023-02-08T08:49:19;103861.44;;;-4.12
53412;BMP280;39307;52.870;13.660;2023-02-08T08:51:45;103859.66;;;-4.07
53412;BMP280;39307;52.870;13.660;2023-02-08T08:54:12;103864.69;;;-4.00
53412;BMP280;39307;52.870;13.660;2023-02-08T08:56:37;103861.16;;;-3.91
53412;BMP280;39307;52.870;13.660;2023-02-08T08:59:03;103866.22;;;-3.85
53412;BMP280;39307;52.870;13.660;2023-02-08T09:01:29;103862.75;;;-3.78
53412;BMP280;39307;52.870;13.660;2023-02-08T09:03:55;103852.44;;;-3.74
53412;BMP280;39307;52.870;13.660;2023-02-08T09:06:21;103855.78;;;-3.71
53412;BMP280;39307;52.870;13.660;2023-02-08T09:08:48;103859.13;;;-3.64
53412;BMP280;39307;52.870;13.660;2023-02-08T09:11:14;103864.16;;;-3.58
53412;BMP280;39307;52.870;13.660;2023-02-08T09:13:41;103863.25;;;-3.53
53412;BMP280;39307;52.870;13.660;2023-02-08T09:16:13;103862.28;;;-3.46
53412;BMP280;39307;52.870;13.660;2023-02-08T09:18:40;103865.69;;;-3.43
53412;BMP280;39307;52.870;13.660;2023-02-08T09:21:14;103862.97;;;-3.34
53412;BMP280;39307;52.870;13.660;2023-02-08T09:23:41;103863.66;;;-3.23
53412;BMP280;39307;52.870;13.660;2023-02-08T09:26:09;103851.47;;;-3.06
53412;BMP280;39307;52.870;13.660;2023-02-08T09:28:36;103842.81;;;-2.99
53412;BMP280;39307;52.870;13.660;2023-02-08T09:31:09;103835.75;;;-2.88
53412;BMP280;39307;52.870;13.660;2023-02-08T09:33:36;103838.03;;;-2.71
53412;BMP280;39307;52.870;13.660;2023-02-08T09:36:03;103836.00;;;-2.51
53412;BMP280;39307;52.870;13.660;2023-02-08T09:38:30;103832.22;;;-2.32
53412;BMP280;39307;52.870;13.660;2023-02-08T09:41:17;103826.69;;;-2.13
53412;BMP280;39307;52.870;13.660;2023-02-08T09:43:59;103818.41;;;-1.85
53412;BMP280;39307;52.870;13.660;2023-02-08T09:46:35;103818.00;;;-1.66
53412;BMP280;39307;52.870;13.660;2023-02-08T09:49:04;103811.66;;;-1.52
53412;BMP280;39307;52.870;13.660;2023-02-08T09:51:46;103807.00;;;-1.35
53412;BMP280;39307;52.870;13.660;2023-02-08T09:54:20;103800.53;;;-1.16
53412;BMP280;39307;52.870;13.660;2023-02-08T09:56:49;103797.56;;;-1.00
53412;BMP280;39307;52.870;13.660;2023-02-08T09:59:23;103791.19;;;-0.86
53412;BMP280;39307;52.870;13.660;2023-02-08T10:01:55;103790.88;;;-0.74
53412;BMP280;39307;52.870;13.660;2023-02-08T10:06:57;103786.94;;;-0.56
53412;BMP280;39307;52.870;13.660;2023-02-08T10:09:25;103787.69;;;-0.51
53412;BMP280;39307;52.870;13.660;2023-02-08T10:14:39;103780.03;;;-0.54
53412;BMP280;39307;52.870;13.660;2023-02-08T10:17:49;103778.38;;;-0.55
53412;BMP280;39307;52.870;13.660;2023-02-08T10:20:42;103771.50;;;-0.56
53412;BMP280;39307;52.870;13.660;2023-02-08T10:31:38;103762.81;;;-0.52
53412;BMP280;39307;52.870;13.660;2023-02-08T10:37:00;103757.41;;;-0.41
53412;BMP280;39307;52.870;13.660;2023-02-08T10:39:32;103749.34;;;-0.29
53412;BMP280;39307;52.870;13.660;2023-02-08T10:42:01;103747.38;;;-0.22
53412;BMP280;39307;52.870;13.660;2023-02-08T10:44:35;103743.00;;;-0.18
53412;BMP280;39307;52.870;13.660;2023-02-08T10:50:28;103739.94;;;-0.02
53412;BMP280;39307;52.870;13.660;2023-02-08T10:52:57;103731.13;;;0.05
53412;BMP280;39307;52.870;13.660;2023-02-08T10:55:23;103737.84;;;0.09
53412;BMP280;39307;52.870;13.660;2023-02-08T10:57:54;103745.09;;;-0.03
53412;BMP280;39307;52.870;13.660;2023-02-08T11:00:33;103738.19;;;-0.01
53412;BMP280;39307;52.870;13.660;2023-02-08T11:03:21;103739.19;;;-0.05
53412;BMP280;39307;52.870;13.660;2023-02-08T11:05:48;103739.03;;;-0.01
53412;BMP280;39307;52.870;13.660;2023-02-08T11:08:16;103731.31;;;-0.01
53412;BMP280;39307;52.870;13.660;2023-02-08T11:11:07;103736.34;;;0.03
53412;BMP280;39307;52.870;13.660;2023-02-08T11:13:37;103729.16;;;0.13
53412;BMP280;39307;52.870;13.660;2023-02-08T11:16:05;103728.81;;;0.25
53412;BMP280;39307;52.870;13.660;2023-02-08T11:18:36;103726.78;;;0.34
53412;BMP280;39307;52.870;13.660;2023-02-08T11:21:08;103720.63;;;0.38
53412;BMP280;39307;52.870;13.660;2023-02-08T11:23:38;103707.69;;;0.39
53412;BMP280;39307;52.870;13.660;2023-02-08T11:29:13;103696.06;;;0.54
53412;BMP280;39307;52.870;13.660;2023-02-08T11:31:57;103713.41;;;0.49
53412;BMP280;39307;52.870;13.660;2023-02-08T11:34:25;103705.78;;;0.46
53412;BMP280;39307;52.870;13.660;2023-02-08T11:36:51;103693.44;;;0.55
53412;BMP280;39307;52.870;13.660;2023-02-08T11:39:27;103702.59;;;0.63
53412;BMP280;39307;52.870;13.660;2023-02-08T11:41:56;103719.03;;;0.61
53412;BMP280;39307;52.870;13.660;2023-02-08T11:44:29;103710.84;;;0.74
53412;BMP280;39307;52.870;13.660;2023-02-08T11:47:00;103719.44;;;0.99
53412;BMP280;39307;52.870;13.660;2023-02-08T11:49:38;103718.53;;;1.24
53412;BMP280;39307;52.870;13.660;2023-02-08T11:52:23;103718.00;;;1.39
53412;BMP280;39307;52.870;13.660;2023-02-08T11:54:52;103726.34;;;1.46
53412;BMP280;39307;52.870;13.660;2023-02-08T11:57:21;103713.75;;;1.60
53412;BMP280;39307;52.870;13.660;2023-02-08T11:59:49;103714.56;;;1.62
53412;BMP280;39307;52.870;13.660;2023-02-08T12:02:38;103712.94;;;1.60
53412;BMP280;39307;52.870;13.660;2023-02-08T12:05:17;103706.81;;;1.62
53412;BMP280;39307;52.870;13.660;2023-02-08T12:13:32;103702.25;;;1.69
53412;BMP280;39307;52.870;13.660;2023-02-08T12:16:14;103704.41;;;1.58
53412;BMP280;39307;52.870;13.660;2023-02-08T12:21:38;103705.06;;;1.40
53412;BMP280;39307;52.870;13.660;2023-02-08T12:27:02;103703.78;;;1.27
53412;BMP280;39307;52.870;13.660;2023-02-08T12:29:49;103711.78;;;1.21
53412;BMP280;39307;52.870;13.660;2023-02-08T12:32:44;103698.09;;;1.18
53412;BMP280;39307;52.870;13.660;2023-02-08T12:41:22;103683.50;;;1.18
53412;BMP280;39307;52.870;13.660;2023-02-08T12:44:02;103687.78;;;1.18
53412;BMP280;39307;52.870;13.660;2023-02-08T12:49:24;103686.22;;;1.14
53412;BMP280;39307;52.870;13.660;2023-02-08T12:52:20;103692.16;;;1.16
53412;BMP280;39307;52.870;13.660;2023-02-08T12:57:49;103687.97;;;1.14
53412;BMP280;39307;52.870;13.660;2023-02-08T13:00:27;103682.91;;;1.11
53412;BMP280;39307;52.870;13.660;2023-02-08T13:05:43;103673.16;;;1.18
53412;BMP280;39307;52.870;13.660;2023-02-08T13:11:00;103666.81;;;1.27
53412;BMP280;39307;52.870;13.660;2023-02-08T13:13:35;103662.38;;;1.30
53412;BMP280;39307;52.870;13.660;2023-02-08T13:16:11;103651.72;;;1.39
53412;BMP280;39307;52.870;13.660;2023-02-08T13:18:45;103660.25;;;1.41
53412;BMP280;39307;52.870;13.660;2023-02-08T13:21:18;103647.66;;;1.34
53412;BMP280;39307;52.870;13.660;2023-02-08T13:23:46;103653.69;;;1.33
53412;BMP280;39307;52.870;13.660;2023-02-08T13:26:16;103651.16;;;1.31
53412;BMP280;39307;52.870;13.660;2023-02-08T13:28:49;103651.81;;;1.36
53412;BMP280;39307;52.870;13.660;2023-02-08T13:31:23;103645.06;;;1.34
53412;BMP280;39307;52.870;13.660;2023-02-08T13:36:26;103636.44;;;1.33
53412;BMP280;39307;52.870;13.660;2023-02-08T13:38:56;103627.88;;;1.33
53412;BMP280;39307;52.870;13.660;2023-02-08T13:41:24;103628.88;;;1.29
53412;BMP280;39307;52.870;13.660;2023-02-08T13:43:57;103629.63;;;1.32
53412;BMP280;39307;52.870;13.660;2023-02-08T13:46:28;103631.47;;;1.29
53412;BMP280;39307;52.870;13.660;2023-02-08T13:49:00;103625.41;;;1.30
53412;BMP280;39307;52.870;13.660;2023-02-08T13:56:51;103621.31;;;1.24
53412;BMP280;39307;52.870;13.660;2023-02-08T13:59:28;103620.66;;;1.18
53412;BMP280;39307;52.870;13.660;2023-02-08T14:02:23;103621.97;;;1.29
53412;BMP280;39307;52.870;13.660;2023-02-08T14:04:54;103614.97;;;1.33
53412;BMP280;39307;52.870;13.660;2023-02-08T14:10:29;103622.38;;;1.19
53412;BMP280;39307;52.870;13.660;2023-02-08T14:15:43;103613.63;;;1.23
53412;BMP280;39307;52.870;13.660;2023-02-08T14:18:24;103602.72;;;1.15
53412;BMP280;39307;52.870;13.660;2023-02-08T14:21:02;103601.22;;;1.10
53412;BMP280;39307;52.870;13.660;2023-02-08T14:23:35;103607.31;;;1.07
53412;BMP280;39307;52.870;13.660;2023-02-08T14:26:08;103603.19;;;1.26
53412;BMP280;39307;52.870;13.660;2023-02-08T14:28:45;103596.00;;;1.11
53412;BMP280;39307;52.870;13.660;2023-02-08T14:31:14;103597.16;;;1.03
53412;BMP280;39307;52.870;13.660;2023-02-08T14:33:53;103587.00;;;0.98
53412;BMP280;39307;52.870;13.660;2023-02-08T14:36:30;103590.72;;;0.91
53412;BMP280;39307;52.870;13.660;2023-02-08T14:39:07;103585.78;;;0.86
53412;BMP280;39307;52.870;13.660;2023-02-08T14:42:08;103585.03;;;0.82
53412;BMP280;39307;52.870;13.660;2023-02-08T14:50:12;103582.59;;;0.78
53412;BMP280;39307;52.870;13.660;2023-02-08T14:52:46;103571.56;;;0.74
53412;BMP280;39307;52.870;13.660;2023-02-08T14:55:22;103579.50;;;0.68
53412;BMP280;39307;52.870;13.660;2023-02-08T14:57:49;103579.69;;;0.64
53412;BMP280;39307;52.870;13.660;2023-02-08T15:00:24;103575.47;;;0.61
53412;BMP280;39307;52.870;13.660;2023-02-08T15:02:52;103570.41;;;0.58
53412;BMP280;39307;52.870;13.660;2023-02-08T15:05:25;103559.97;;;0.61
53412;BMP280;39307;52.870;13.660;2023-02-08T15:07:56;103563.31;;;0.65
53412;BMP280;39307;52.870;13.660;2023-02-08T15:10:24;103561.78;;;0.59
53412;BMP280;39307;52.870;13.660;2023-02-08T15:12:53;103559.47;;;0.52
53412;BMP280;39307;52.870;13.660;2023-02-08T15:15:25;103556.91;;;0.51
53412;BMP280;39307;52.870;13.660;2023-02-08T15:17:54;103556.91;;;0.51
53412;BMP280;39307;52.870;13.660;2023-02-08T15:20:24;103547.72;;;0.44
53412;BMP280;39307;52.870;13.660;2023-02-08T15:25:35;103551.53;;;0.32
53412;BMP280;39307;52.870;13.660;2023-02-08T15:28:18;103549.13;;;0.28
53412;BMP280;39307;52.870;13.660;2023-02-08T15:30:58;103543.28;;;0.23
53412;BMP280;39307;52.870;13.660;2023-02-08T15:33:25;103526.91;;;0.24
53412;BMP280;39307;52.870;13.660;2023-02-08T15:35:57;103537.56;;;0.15
53412;BMP280;39307;52.870;13.660;2023-02-08T15:38:24;103529.47;;;0.26
53412;BMP280;39307;52.870;13.660;2023-02-08T15:41:12;103530.91;;;0.08
53412;BMP280;39307;52.870;13.660;2023-02-08T15:43:40;103533.00;;;-0.02
53412;BMP280;39307;52.870;13.660;2023-02-08T15:46:23;103510.78;;;-0.06
53412;BMP280;39307;52.870;13.660;2023-02-08T15:48:50;103524.78;;;-0.13
53412;BMP280;39307;52.870;13.660;2023-02-08T15:51:18;103517.19;;;-0.18
53412;BMP280;39307;52.870;13.660;2023-02-08T15:53:47;103521.44;;;-0.17
53412;BMP280;39307;52.870;13.660;2023-02-08T15:56:23;103514.84;;;-0.25
53412;BMP280;39307;52.870;13.660;2023-02-08T15:58:55;103515.75;;;-0.26